createdAt,value
2023-04-15T00:00:47.028Z,83.58
2023-04-15T00:03:35.202Z,83.50
2023-04-15T00:06:22.176Z,83.55
2023-04-15T00:09:07.655Z,83.32
2023-04-15T00:11:53.938Z,83.26
2023-04-15T00:14:40.228Z,83.29
2023-04-15T00:17:28.107Z,83.33
2023-04-15T00:20:14.091Z,83.51
2023-04-15T00:23:00.595Z,83.45
2023-04-15T00:25:47.909Z,83.34
2023-04-15T00:28:33.383Z,83.35
2023-04-15T00:31:18.986Z,83.40
2023-04-15T00:34:04.642Z,83.44
2023-04-15T00:36:52.184Z,83.50
2023-04-15T00:42:39.869Z,83.36
2023-04-15T00:45:28.172Z,83.41
2023-04-15T00:48:15.497Z,83.21
2023-04-15T00:51:00.813Z,83.14
2023-04-15T00:53:46.561Z,83.00
2023-04-15T00:56:39.304Z,83.05
2023-04-15T00:59:25.808Z,83.05
2023-04-15T01:02:12.320Z,83.18
2023-04-15T01:04:58.203Z,82.92
2023-04-15T01:07:44.102Z,83.01
2023-04-15T01:10:40.014Z,83.05
2023-04-15T01:13:25.185Z,83.11
2023-04-15T01:19:27.060Z,82.75
2023-04-15T01:22:12.543Z,82.97
2023-04-15T01:25:09.272Z,82.88
2023-04-15T01:27:55.170Z,82.89
2023-04-15T01:30:40.615Z,82.77
2023-04-15T01:33:30.332Z,82.86
2023-04-15T01:36:16.019Z,82.88
2023-04-15T01:39:01.718Z,82.80
2023-04-15T01:41:48.321Z,82.72
2023-04-15T01:44:33.686Z,82.79
2023-04-15T01:47:19.174Z,82.91
2023-04-15T01:50:07.203Z,82.92
2023-04-15T01:52:52.580Z,83.03
2023-04-15T01:55:39.197Z,83.07
2023-04-15T01:58:24.568Z,82.98
2023-04-15T02:01:11.813Z,82.94
2023-04-15T02:03:57.414Z,83.00
2023-04-15T02:06:45.812Z,83.21
2023-04-15T02:09:31.407Z,83.26
2023-04-15T02:12:16.979Z,83.05
2023-04-15T02:15:02.603Z,83.05
2023-04-15T02:17:51.655Z,82.97
2023-04-15T02:20:37.835Z,82.94
2023-04-15T02:23:24.093Z,82.98
2023-04-15T02:26:10.400Z,82.98
2023-04-15T02:28:56.725Z,83.06
2023-04-15T02:31:45.155Z,82.70
2023-04-15T02:34:32.482Z,82.73
2023-04-15T02:37:20.830Z,82.72
2023-04-15T02:43:23.179Z,82.76
2023-04-15T02:46:08.674Z,82.76
2023-04-15T02:48:53.978Z,82.71
2023-04-15T02:51:41.300Z,82.68
2023-04-15T02:54:29.856Z,83.04
2023-04-15T02:57:15.229Z,82.76
2023-04-15T03:00:00.808Z,82.74
2023-04-15T03:02:47.072Z,82.80
2023-04-15T03:05:33.038Z,82.58
2023-04-15T03:08:19.096Z,82.46
2023-04-15T03:11:04.790Z,82.74
2023-04-15T03:13:50.211Z,82.60
2023-04-15T03:16:36.032Z,82.32
2023-04-15T03:19:21.641Z,82.26
2023-04-15T03:22:07.111Z,82.08
2023-04-15T03:24:52.602Z,81.91
2023-04-15T03:27:38.369Z,81.75
2023-04-15T03:30:23.934Z,81.67
2023-04-15T03:33:09.319Z,81.51
2023-04-15T03:35:54.701Z,81.70
2023-04-15T03:38:40.588Z,80.79
2023-04-15T03:41:26.701Z,80.65
2023-04-15T03:44:12.466Z,80.70
2023-04-15T03:46:57.742Z,80.61
2023-04-15T03:49:43.431Z,80.79
2023-04-15T03:52:28.720Z,80.73
2023-04-15T03:55:15.192Z,80.59
2023-04-15T03:58:01.605Z,80.19
2023-04-15T04:00:46.772Z,79.92
2023-04-15T04:03:34.312Z,79.67
2023-04-15T04:06:20.555Z,79.69
2023-04-15T04:09:06.180Z,79.46
2023-04-15T04:18:23.342Z,79.74
2023-04-15T04:21:09.760Z,79.59
2023-04-15T04:23:56.344Z,79.34
2023-04-15T04:26:41.725Z,78.43
2023-04-15T04:35:58.698Z,78.33
2023-04-15T04:45:08.103Z,78.71
2023-04-15T04:47:53.435Z,78.76
2023-04-15T04:50:39.217Z,78.87
2023-04-15T04:56:27.477Z,78.66
2023-04-15T04:59:13.479Z,78.99
2023-04-15T05:01:59.224Z,78.73
2023-04-15T05:04:46.245Z,78.66
2023-04-15T05:07:31.647Z,78.73
2023-04-15T05:10:18.455Z,78.78
2023-04-15T05:13:04.660Z,78.74
2023-04-15T05:15:50.266Z,78.70
2023-04-15T05:18:36.199Z,78.44
2023-04-15T05:21:24.475Z,78.70
2023-04-15T05:24:10.156Z,78.67
2023-04-15T05:27:01.497Z,78.43
2023-04-15T05:29:46.747Z,77.86
2023-04-15T05:32:32.071Z,77.63
2023-04-15T05:35:17.719Z,77.28
2023-04-15T05:38:03.188Z,77.36
2023-04-15T05:40:58.601Z,76.78
2023-04-15T05:43:43.780Z,76.39
2023-04-15T05:46:29.227Z,76.51
2023-04-15T05:49:16.542Z,76.01
2023-04-15T05:52:02.658Z,76.21
2023-04-15T05:54:48.249Z,76.15
2023-04-15T05:57:34.045Z,75.73
2023-04-15T06:00:20.527Z,75.38
2023-04-15T06:03:06.050Z,74.76
2023-04-15T06:05:52.618Z,74.92
2023-04-15T06:08:38.401Z,74.99
2023-04-15T06:11:27.153Z,74.31
2023-04-15T06:14:13.341Z,74.01
2023-04-15T06:16:58.534Z,73.63
2023-04-15T06:19:43.501Z,74.23
2023-04-15T06:22:28.952Z,73.24
2023-04-15T06:25:15.180Z,73.53
2023-04-15T06:28:01.087Z,73.69
2023-04-15T06:30:46.643Z,73.88
2023-04-15T06:33:31.922Z,74.13
2023-04-15T06:36:18.135Z,73.95
2023-04-15T06:39:03.935Z,73.41
2023-04-15T06:41:50.340Z,72.79
2023-04-15T06:44:36.902Z,72.63
2023-04-15T06:47:22.400Z,72.92
2023-04-15T06:50:09.504Z,72.62
2023-04-15T06:52:55.895Z,72.02
2023-04-15T06:55:41.606Z,71.85
2023-04-15T07:01:30.282Z,72.64
2023-04-15T07:04:16.391Z,71.01
2023-04-15T07:07:02.651Z,70.92
2023-04-15T07:09:48.517Z,71.11
2023-04-15T07:12:35.559Z,69.75
2023-04-15T07:15:22.978Z,69.10
2023-04-15T07:18:09.479Z,69.38
2023-04-15T07:20:55.985Z,68.79
2023-04-15T07:23:41.881Z,68.03
2023-04-15T07:26:27.496Z,67.70
2023-04-15T07:29:12.825Z,68.67
2023-04-15T07:31:58.415Z,68.01
2023-04-15T07:34:44.297Z,67.51
2023-04-15T07:37:29.991Z,67.93
2023-04-15T07:40:16.015Z,67.60
2023-04-15T07:43:01.353Z,67.73
2023-04-15T07:45:46.913Z,67.52
2023-04-15T07:48:34.935Z,66.51
2023-04-15T07:51:24.550Z,65.77
2023-04-15T07:54:09.847Z,65.39
2023-04-15T07:56:58.664Z,65.90
2023-04-15T07:59:44.062Z,66.16
2023-04-15T08:02:29.779Z,66.69
2023-04-15T08:05:16.545Z,66.48
2023-04-15T08:08:02.325Z,65.55
2023-04-15T08:10:48.262Z,65.24
2023-04-15T08:13:34.728Z,64.93
2023-04-15T08:16:29.871Z,63.49
2023-04-15T08:19:15.412Z,63.80
2023-04-15T08:22:01.096Z,64.05
2023-04-15T08:24:48.729Z,63.57
2023-04-15T08:27:34.318Z,64.01
2023-04-15T08:30:23.473Z,64.91
2023-04-15T08:33:13.595Z,65.03
2023-04-15T08:35:59.042Z,62.10
2023-04-15T08:38:46.471Z,62.24
2023-04-15T08:41:39.725Z,62.73
2023-04-15T08:48:11.918Z,60.49
2023-04-15T08:50:59.144Z,58.95
2023-04-15T08:53:47.711Z,58.28
2023-04-15T08:56:37.594Z,59.35
2023-04-15T08:59:23.474Z,60.25
2023-04-15T09:02:08.872Z,60.06
2023-04-15T09:04:54.419Z,60.09
2023-04-15T09:07:39.700Z,57.14
2023-04-15T09:10:26.057Z,57.44
2023-04-15T09:13:11.941Z,58.05
2023-04-15T09:15:59.411Z,57.94
2023-04-15T09:28:31.149Z,55.84
2023-04-15T09:31:16.689Z,55.26
2023-04-15T09:34:02.505Z,55.59
2023-04-15T09:40:04.140Z,54.71
2023-04-15T10:16:27.640Z,45.91
2023-04-15T10:19:15.973Z,48.24
2023-04-15T10:24:53.937Z,46.34
2023-04-15T10:30:18.802Z,46.61
2023-04-15T10:33:05.447Z,45.40
2023-04-15T10:35:52.990Z,46.54
2023-04-15T10:54:24.592Z,45.51
2023-04-15T11:00:11.324Z,45.43
2023-04-15T11:03:11.473Z,46.34
2023-04-15T11:05:57.492Z,46.53
2023-04-15T11:09:05.285Z,46.95
2023-04-15T11:12:11.339Z,47.70
2023-04-15T11:21:07.863Z,49.27
2023-04-15T11:23:53.342Z,48.81
2023-04-15T11:29:32.907Z,47.38
2023-04-15T11:32:18.526Z,46.47
2023-04-15T11:35:04.838Z,45.48
2023-04-15T11:40:46.811Z,44.59
2023-04-15T11:43:34.666Z,44.22
2023-04-15T11:49:33.364Z,42.63
2023-04-15T11:52:18.456Z,43.06
2023-04-15T11:55:52.541Z,42.76
2023-04-15T11:58:38.590Z,43.11
2023-04-15T12:01:42.398Z,42.98
2023-04-15T12:17:50.915Z,40.30
2023-04-15T12:46:15.622Z,39.91
2023-04-15T13:07:55.205Z,42.40
2023-04-15T13:10:41.862Z,43.12
2023-04-15T13:13:27.436Z,43.81
2023-04-15T13:19:23.395Z,44.73
2023-04-15T13:34:19.022Z,41.59
2023-04-15T13:43:16.993Z,41.23
2023-04-15T13:52:31.846Z,39.87
2023-04-15T14:01:17.953Z,40.91
2023-04-15T14:23:50.782Z,31.25
2023-04-15T14:43:04.716Z,32.43
2023-04-15T14:52:32.366Z,30.72
2023-04-15T14:55:17.758Z,30.79
2023-04-15T14:58:20.588Z,31.67
2023-04-15T15:07:12.913Z,32.27
2023-04-15T15:12:51.414Z,33.11
2023-04-15T15:42:51.203Z,35.83
2023-04-15T15:48:47.686Z,35.96
2023-04-15T16:04:55.568Z,39.19
2023-04-15T16:23:05.961Z,42.33
2023-04-15T16:29:05.520Z,43.32
2023-04-15T16:35:07.317Z,44.26
2023-04-15T16:40:49.216Z,45.01
2023-04-15T16:43:34.602Z,45.23
2023-04-15T16:46:19.687Z,45.87
2023-04-15T16:49:04.840Z,46.33
2023-04-15T17:07:10.452Z,48.13
2023-04-15T17:09:56.321Z,48.54
2023-04-15T17:12:41.482Z,48.57
2023-04-15T17:15:26.821Z,49.18
2023-04-15T17:21:08.059Z,49.34
2023-04-15T17:39:52.484Z,51.10
2023-04-15T17:52:18.306Z,52.36
2023-04-15T17:55:04.265Z,52.58
2023-04-15T17:57:49.394Z,52.88
2023-04-15T18:00:34.596Z,53.28
2023-04-15T18:09:43.959Z,54.19
2023-04-15T18:12:28.773Z,54.42
2023-04-15T18:15:14.100Z,55.13
2023-04-15T18:17:59.899Z,55.40
2023-04-15T18:20:45.113Z,55.63
2023-04-15T18:26:08.690Z,56.45
2023-04-15T18:34:47.647Z,58.89
2023-04-15T18:37:41.403Z,59.28
2023-04-15T18:40:28.778Z,59.38
2023-04-15T18:46:29.736Z,59.77
2023-04-15T18:49:15.019Z,59.97
2023-04-15T18:55:22.466Z,60.23
2023-04-15T18:58:08.789Z,60.35
2023-04-15T19:03:47.783Z,60.77
2023-04-15T19:06:33.228Z,61.06
2023-04-15T19:09:18.520Z,61.22
2023-04-15T19:15:19.724Z,61.84
2023-04-15T19:18:09.907Z,61.85
2023-04-15T19:20:56.335Z,62.04
2023-04-15T19:23:44.403Z,62.28
2023-04-15T19:26:29.861Z,62.48
2023-04-15T19:32:34.278Z,62.69
2023-04-15T19:45:58.012Z,63.16
2023-04-15T19:51:46.335Z,63.51
2023-04-15T19:55:11.279Z,63.75
2023-04-15T19:57:57.191Z,63.82
2023-04-15T20:00:42.293Z,63.99
2023-04-15T20:03:27.856Z,64.18
2023-04-15T20:06:16.453Z,64.36
2023-04-15T20:09:01.598Z,64.36
2023-04-15T20:14:40.044Z,64.48
2023-04-15T20:17:25.440Z,64.51
2023-04-15T20:23:10.082Z,64.79
2023-04-15T20:28:48.459Z,65.12
2023-04-15T20:31:33.707Z,65.17
2023-04-15T20:34:18.586Z,65.30
2023-04-15T20:40:20.258Z,65.55
2023-04-15T20:52:32.462Z,65.84
2023-04-15T20:55:18.056Z,65.92
2023-04-15T21:00:42.535Z,66.01
2023-04-15T21:13:06.820Z,66.25
2023-04-15T21:15:53.500Z,66.31
2023-04-15T21:18:38.538Z,66.47
2023-04-15T21:21:23.500Z,66.59
2023-04-15T21:24:08.947Z,66.62
2023-04-15T21:29:44.668Z,66.86
2023-04-15T21:32:30.033Z,66.82
2023-04-15T21:35:15.371Z,67.01
2023-04-15T21:38:01.640Z,66.96
2023-04-15T21:44:03.875Z,66.95
2023-04-15T21:49:41.501Z,67.24
2023-04-15T21:52:26.737Z,67.47
2023-04-15T21:55:11.841Z,67.51
2023-04-15T21:57:57.125Z,67.81
2023-04-15T22:00:42.352Z,67.74
2023-04-15T22:03:33.214Z,67.88
2023-04-15T22:06:18.595Z,67.88
2023-04-15T22:12:03.945Z,67.82
2023-04-15T22:14:49.094Z,68.11
2023-04-15T22:17:34.526Z,68.00
2023-04-15T22:26:36.341Z,68.35
2023-04-15T22:29:29.747Z,68.51
2023-04-15T22:32:15.337Z,68.46
2023-04-15T22:35:00.813Z,68.71
2023-04-15T22:37:45.987Z,68.85
2023-04-15T22:40:31.381Z,69.02
2023-04-15T22:43:16.749Z,69.20
2023-04-15T22:46:04.956Z,69.27
2023-04-15T22:48:50.441Z,69.29
2023-04-15T22:52:23.447Z,69.48
2023-04-15T22:55:19.448Z,69.78
2023-04-15T22:58:25.780Z,70.03
2023-04-15T23:01:11.270Z,70.03
2023-04-15T23:10:04.536Z,70.87
2023-04-15T23:12:50.276Z,70.77
2023-04-15T23:15:35.423Z,70.72
2023-04-15T23:22:00.288Z,70.94
2023-04-15T23:24:45.655Z,70.76
2023-04-15T23:30:27.573Z,70.89
2023-04-15T23:42:53.540Z,71.57
2023-04-15T23:48:54.167Z,71.79
2023-04-15T23:51:40.280Z,71.84
